Time;durP1;ratioP1;P1;durP2;ratioP2;P2;SDS_P1;SDS_P2;PMS_P1;PMS_P2;Temp;Humidity;BMP_temperature;BMP_pressure;BME280_temperature;BME280_humidity;BME280_pressure;Samples;Min_cycle;Max_cycle;Signal;HPM_P1;HPM_P2
2022/10/07 00:01:13;;;;;;;5.50;4.20;;;9.90;99.90;;;;;;5011410;28;20680;-70
2022/10/07 00:03:41;;;;;;;3.33;3.03;;;9.90;99.90;;;;;;5002195;28;20304;-71
2022/10/07 00:06:12;;;;;;;8.67;3.70;;;9.80;99.90;;;;;;4991626;28;20259;-70
2022/10/07 00:08:43;;;;;;;4.67;3.50;;;9.80;99.90;;;;;;4991635;28;20400;-70
2022/10/07 00:11:14;;;;;;;4.30;3.80;;;9.70;99.90;;;;;;4979332;28;20418;-71
2022/10/07 00:13:42;;;;;;;4.00;2.83;;;9.70;99.90;;;;;;4990061;28;20531;-71
2022/10/07 00:16:10;;;;;;;4.73;2.97;;;9.70;99.90;;;;;;4991463;28;20414;-71
2022/10/07 00:18:37;;;;;;;4.10;2.83;;;9.70;99.90;;;;;;4989956;28;20449;-70
2022/10/07 00:21:11;;;;;;;6.60;3.93;;;9.70;99.90;;;;;;4979036;28;20473;-71
2022/10/07 00:23:37;;;;;;;4.30;3.57;;;9.60;99.90;;;;;;4990308;28;20514;-71
2022/10/07 00:26:06;;;;;;;2.70;2.50;;;9.60;99.90;;;;;;4998342;28;20403;-71
2022/10/07 00:28:36;;;;;;;7.53;2.93;;;9.60;99.90;;;;;;5007510;28;20410;-71
2022/10/07 00:31:11;;;;;;;5.63;3.93;;;9.60;99.90;;;;;;4995817;28;20410;-71
2022/10/07 00:33:37;;;;;;;6.13;3.30;;;9.60;99.90;;;;;;5002054;28;20434;-71
2022/10/07 00:36:10;;;;;;;6.00;3.20;;;9.60;99.90;;;;;;4991576;28;20416;-71
2022/10/07 00:38:40;;;;;;;4.43;4.03;;;9.60;99.90;;;;;;5007486;28;20648;-70
2022/10/07 00:41:08;;;;;;;6.17;3.10;;;9.60;99.90;;;;;;4975172;28;20522;-71
2022/10/07 00:43:37;;;;;;;4.27;3.87;;;9.60;99.90;;;;;;5011535;28;20430;-71
2022/10/07 00:46:39;;;;;;;4.70;3.00;;;9.60;99.90;;;;;;5001798;28;20399;-71
2022/10/07 00:49:09;;;;;;;7.10;3.57;;;9.60;99.90;;;;;;4922555;29;20446;-70
2022/10/07 00:51:35;;;;;;;4.67;2.97;;;9.60;99.90;;;;;;4977261;28;20419;-70
2022/10/07 00:54:08;;;;;;;4.90;3.60;;;9.60;99.90;;;;;;5006576;28;20901;-70
2022/10/07 00:56:34;;;;;;;4.17;3.50;;;9.70;99.90;;;;;;5013246;28;20411;-70
2022/10/07 00:59:00;;;;;;;5.60;3.63;;;9.60;99.90;;;;;;4994458;28;20415;-70
2022/10/07 01:01:26;;;;;;;5.70;4.03;;;9.60;99.90;;;;;;5002027;28;20647;-71
2022/10/07 01:03:53;;;;;;;4.90;3.17;;;9.70;99.90;;;;;;5014317;28;20462;-71
2022/10/07 01:06:18;;;;;;;8.07;3.33;;;9.70;99.90;;;;;;4999720;28;20251;-71
2022/10/07 01:08:46;;;;;;;5.93;3.37;;;9.60;99.90;;;;;;5010152;28;20442;-71
2022/10/07 01:11:39;;;;;;;6.50;2.90;;;9.60;99.90;;;;;;4982500;28;20176;-72
2022/10/07 01:14:19;;;;;;;3.53;3.03;;;9.50;99.90;;;;;;5000568;28;20414;-71
2022/10/07 01:16:52;;;;;;;6.80;3.23;;;9.50;99.90;;;;;;4996084;28;21094;-70
2022/10/07 01:19:48;;;;;;;9.50;3.73;;;9.50;99.90;;;;;;5007200;28;20414;-71
2022/10/07 01:22:33;;;;;;;4.60;3.03;;;9.40;99.90;;;;;;4973436;28;20451;-71
2022/10/07 01:25:06;;;;;;;4.20;2.80;;;9.40;99.90;;;;;;4982540;28;20407;-70
2022/10/07 01:27:33;;;;;;;3.10;2.70;;;9.40;99.90;;;;;;5008452;28;20433;-70
2022/10/07 01:30:03;;;;;;;3.43;3.00;;;9.40;99.90;;;;;;5002936;28;20412;-70
2022/10/07 01:32:52;;;;;;;3.50;2.77;;;9.30;99.90;;;;;;4976040;28;20435;-69
2022/10/07 01:35:23;;;;;;;6.20;3.53;;;9.30;99.90;;;;;;4974273;28;20843;-69
2022/10/07 01:37:56;;;;;;;2.90;2.30;;;9.30;99.90;;;;;;4974200;28;20406;-70
2022/10/07 01:40:32;;;;;;;8.90;3.30;;;9.30;99.90;;;;;;5000354;28;20457;-71
2022/10/07 01:42:58;;;;;;;4.57;3.00;;;9.30;99.90;;;;;;5004056;28;20515;-69
2022/10/07 01:45:26;;;;;;;4.30;3.30;;;9.30;99.90;;;;;;4999583;28;20417;-71
2022/10/07 01:47:52;;;;;;;5.03;3.40;;;9.30;99.90;;;;;;4986095;28;20423;-70
2022/10/07 01:50:24;;;;;;;11.40;2.77;;;9.30;99.90;;;;;;4989030;28;20418;-71
2022/10/07 01:52:58;;;;;;;4.77;2.80;;;9.20;99.90;;;;;;5002124;28;20271;-70
2022/10/07 01:55:23;;;;;;;5.13;3.63;;;9.20;99.90;;;;;;5007461;28;20500;-72
2022/10/07 01:57:53;;;;;;;4.37;2.83;;;9.10;99.90;;;;;;5002348;28;20421;-70
2022/10/07 02:00:25;;;;;;;4.40;4.00;;;9.10;99.90;;;;;;5012951;28;20277;-71
2022/10/07 02:03:08;;;;;;;4.37;3.10;;;9.00;99.90;;;;;;4978796;28;20461;-71
2022/10/07 02:05:59;;;;;;;3.43;2.67;;;9.00;99.90;;;;;;5001903;28;20409;-70
2022/10/07 02:08:40;;;;;;;4.80;3.10;;;9.00;99.90;;;;;;4988986;28;20746;-71
2022/10/07 02:11:20;;;;;;;4.37;3.33;;;8.90;99.90;;;;;;4999230;28;20487;-71
2022/10/07 02:14:02;;;;;;;4.17;2.80;;;8.90;99.90;;;;;;5009603;28;20553;-70
2022/10/07 02:16:34;;;;;;;4.40;2.70;;;8.90;99.90;;;;;;5012954;28;20419;-69
2022/10/07 02:19:05;;;;;;;3.03;2.50;;;8.90;99.90;;;;;;5012360;28;20431;-71
2022/10/07 02:21:35;;;;;;;4.43;3.77;;;8.80;99.90;;;;;;5002743;28;20558;-70
2022/10/07 02:24:01;;;;;;;6.87;3.40;;;8.90;99.90;;;;;;5001645;28;20557;-71
2022/10/07 02:26:29;;;;;;;7.10;3.07;;;8.80;99.90;;;;;;5006605;28;20467;-71
2022/10/07 02:28:56;;;;;;;6.97;3.07;;;8.80;99.90;;;;;;5010171;28;20437;-72
2022/10/07 02:31:29;;;;;;;3.90;2.90;;;8.90;99.90;;;;;;4992709;28;20519;-70
2022/10/07 02:33:59;;;;;;;5.17;3.40;;;8.90;99.90;;;;;;5003068;28;20525;-71
2022/10/07 02:36:39;;;;;;;6.33;3.00;;;8.90;99.90;;;;;;4994840;28;20421;-70
2022/10/07 02:39:09;;;;;;;10.70;3.70;;;8.80;99.90;;;;;;4995841;28;20535;-71
2022/10/07 02:41:35;;;;;;;9.70;2.97;;;8.90;99.90;;;;;;4994324;28;20490;-70
2022/10/07 02:44:06;;;;;;;5.97;3.40;;;8.90;99.90;;;;;;5008347;28;20469;-70
2022/10/07 02:46:41;;;;;;;6.53;3.50;;;8.80;99.90;;;;;;5003262;28;20438;-71
2022/10/07 02:49:11;;;;;;;5.70;2.60;;;8.80;99.90;;;;;;4986871;28;20422;-70
2022/10/07 02:51:45;;;;;;;4.27;3.03;;;8.80;99.90;;;;;;5011934;28;20434;-71
2022/10/07 02:54:20;;;;;;;5.73;3.30;;;8.80;99.90;;;;;;4999916;28;20527;-70
2022/10/07 02:56:50;;;;;;;4.80;2.93;;;8.80;99.90;;;;;;5008507;28;20927;-70
2022/10/07 02:59:21;;;;;;;5.20;2.90;;;8.80;99.90;;;;;;4959143;28;20500;-71
2022/10/07 03:01:49;;;;;;;9.73;4.00;;;8.80;99.90;;;;;;4982737;28;20845;-70
2022/10/07 03:04:15;;;;;;;4.70;2.87;;;8.80;99.90;;;;;;5011870;28;20421;-70
2022/10/07 03:06:41;;;;;;;7.20;3.50;;;8.80;99.90;;;;;;5001798;28;20484;-71
2022/10/07 03:09:08;;;;;;;5.10;3.37;;;8.80;99.90;;;;;;4962745;28;20422;-70
2022/10/07 03:11:38;;;;;;;5.70;3.80;;;8.80;99.90;;;;;;5004715;28;20421;-71
2022/10/07 03:14:09;;;;;;;5.07;2.80;;;8.70;99.90;;;;;;4992215;28;20414;-71
2022/10/07 03:16:34;;;;;;;5.00;3.20;;;8.70;99.90;;;;;;4958537;28;20420;-72
2022/10/07 03:19:00;;;;;;;4.00;3.63;;;8.70;99.90;;;;;;4975494;28;20422;-72
2022/10/07 03:21:27;;;;;;;4.60;4.20;;;8.70;99.90;;;;;;5005382;28;20320;-69
2022/10/07 03:23:53;;;;;;;4.00;2.80;;;8.60;99.90;;;;;;4992191;28;20446;-71
2022/10/07 03:26:19;;;;;;;4.47;2.63;;;8.60;99.90;;;;;;5005244;28;20424;-71
2022/10/07 03:28:48;;;;;;;6.67;4.23;;;8.60;99.90;;;;;;5002919;28;20419;-69
2022/10/07 03:31:14;;;;;;;3.23;2.93;;;8.60;99.90;;;;;;4978767;28;20408;-71
2022/10/07 03:33:40;;;;;;;7.50;3.33;;;8.60;99.90;;;;;;4984217;28;20434;-70
2022/10/07 03:36:07;;;;;;;8.67;4.00;;;8.60;99.90;;;;;;4994022;28;20441;-71
2022/10/07 03:38:40;;;;;;;6.40;3.90;;;8.50;99.90;;;;;;4993987;28;20483;-71
2022/10/07 03:41:06;;;;;;;9.90;3.77;;;8.50;99.90;;;;;;4976060;28;20453;-72
2022/10/07 03:43:36;;;;;;;6.10;3.77;;;8.50;99.90;;;;;;5010944;28;20515;-72
2022/10/07 03:46:02;;;;;;;5.17;3.90;;;8.50;99.90;;;;;;5000076;28;20459;-70
2022/10/07 03:48:29;;;;;;;6.73;3.73;;;8.50;99.90;;;;;;5005975;28;20404;-71
2022/10/07 03:50:58;;;;;;;3.67;3.20;;;8.50;99.90;;;;;;4993008;28;20205;-71
2022/10/07 03:53:32;;;;;;;5.23;3.73;;;8.50;99.90;;;;;;4991565;28;20449;-70
2022/10/07 03:55:58;;;;;;;6.63;3.90;;;8.40;99.90;;;;;;4991589;28;20928;-70
2022/10/07 03:58:23;;;;;;;4.20;3.50;;;8.40;99.90;;;;;;4991576;28;20534;-70
2022/10/07 04:00:52;;;;;;;5.37;3.93;;;8.40;99.90;;;;;;5007468;28;20212;-71
2022/10/07 04:03:18;;;;;;;5.23;3.67;;;8.40;99.90;;;;;;4996646;28;20192;-70
2022/10/07 04:05:54;;;;;;;6.33;3.93;;;8.40;99.90;;;;;;5002502;28;20471;-71
2022/10/07 04:08:19;;;;;;;7.47;3.90;;;8.40;99.90;;;;;;5005176;28;20223;-71
2022/10/07 04:10:45;;;;;;;4.83;3.30;;;8.40;99.90;;;;;;5011086;28;20409;-71
2022/10/07 04:13:11;;;;;;;8.33;4.23;;;8.30;99.90;;;;;;4990994;28;20208;-71
2022/10/07 04:15:37;;;;;;;4.30;3.60;;;8.30;99.90;;;;;;4991584;28;20420;-71
2022/10/07 04:18:03;;;;;;;7.77;4.50;;;8.30;99.90;;;;;;4995565;28;20269;-70
2022/10/07 04:20:28;;;;;;;8.20;3.60;;;8.30;99.90;;;;;;5005968;28;20522;-71
2022/10/07 04:22:57;;;;;;;5.83;3.90;;;8.30;99.90;;;;;;4995054;28;20532;-72
2022/10/07 04:25:36;;;;;;;9.60;4.17;;;8.30;99.90;;;;;;4997677;28;20272;-69
2022/10/07 04:28:05;;;;;;;9.93;3.73;;;8.20;99.90;;;;;;5018325;28;20415;-71
2022/10/07 04:30:33;;;;;;;8.20;4.10;;;8.20;99.90;;;;;;5019820;28;20407;-71
2022/10/07 04:33:00;;;;;;;4.17;3.87;;;8.20;99.90;;;;;;5003535;28;20515;-71
2022/10/07 04:35:25;;;;;;;4.93;3.23;;;8.20;99.90;;;;;;5002964;28;20434;-70
2022/10/07 04:37:51;;;;;;;6.47;4.13;;;8.20;99.90;;;;;;5019903;28;20449;-70
2022/10/07 04:40:20;;;;;;;4.20;3.30;;;8.20;99.90;;;;;;4991942;28;20697;-71
2022/10/07 04:45:32;;;;;;;10.83;3.80;;;8.10;99.90;;;;;;5018548;28;20435;-71
2022/10/07 04:47:59;;;;;;;5.23;3.60;;;8.10;99.90;;;;;;5005715;28;20412;-70
2022/10/07 04:50:24;;;;;;;4.00;3.57;;;8.10;99.90;;;;;;4996198;28;20413;-70
2022/10/07 04:52:50;;;;;;;11.90;4.10;;;8.10;99.90;;;;;;5012415;28;20454;-70
2022/10/07 04:55:15;;;;;;;5.90;4.23;;;8.20;99.90;;;;;;5010638;28;20166;-70
2022/10/07 04:57:43;;;;;;;5.53;3.53;;;8.10;99.90;;;;;;4995988;28;20174;-71
2022/10/07 05:00:12;;;;;;;10.93;3.93;;;8.10;99.90;;;;;;5006637;28;20229;-71
2022/10/07 05:02:38;;;;;;;6.57;3.67;;;8.10;99.90;;;;;;4997799;28;20439;-69
2022/10/07 05:05:04;;;;;;;10.23;4.00;;;8.00;99.90;;;;;;4994305;28;20404;-70
2022/10/07 05:07:31;;;;;;;6.03;3.50;;;8.00;99.90;;;;;;5000831;28;20412;-71
2022/10/07 05:09:57;;;;;;;5.47;4.10;;;8.10;99.90;;;;;;5003228;28;20457;-70
2022/10/07 05:12:24;;;;;;;11.37;4.03;;;8.00;99.90;;;;;;5007887;28;20459;-70
2022/10/07 05:14:52;;;;;;;4.40;3.53;;;8.00;99.90;;;;;;5012523;28;20423;-72
2022/10/07 05:17:19;;;;;;;5.63;3.70;;;8.00;99.90;;;;;;4976165;28;20459;-71
2022/10/07 05:19:44;;;;;;;5.37;3.83;;;8.00;99.90;;;;;;5002746;28;20413;-70
2022/10/07 05:22:10;;;;;;;5.33;3.97;;;8.00;99.90;;;;;;5001423;28;20460;-71
2022/10/07 05:24:35;;;;;;;6.53;3.67;;;8.00;99.90;;;;;;5009600;28;20657;-71
2022/10/07 05:27:01;;;;;;;5.73;3.73;;;8.10;99.90;;;;;;5013657;28;20273;-71
2022/10/07 05:29:26;;;;;;;5.53;4.20;;;8.00;99.90;;;;;;5007243;28;20182;-71
2022/10/07 05:31:52;;;;;;;5.13;3.97;;;8.10;99.90;;;;;;5003569;28;20243;-72
2022/10/07 05:34:18;;;;;;;8.37;3.80;;;8.00;99.90;;;;;;5002880;28;20250;-72
2022/10/07 05:36:44;;;;;;;5.97;4.07;;;8.00;99.90;;;;;;5012601;28;20188;-72
2022/10/07 05:39:10;;;;;;;10.10;4.47;;;8.00;99.90;;;;;;4996189;28;20408;-72
2022/10/07 05:41:36;;;;;;;6.63;4.03;;;8.00;99.90;;;;;;4994065;28;20195;-72
2022/10/07 05:44:02;;;;;;;5.93;4.27;;;8.00;99.90;;;;;;4977503;28;20414;-72
2022/10/07 05:46:27;;;;;;;8.77;4.70;;;8.10;99.90;;;;;;5007740;28;20870;-72
2022/10/07 05:48:53;;;;;;;7.87;4.90;;;8.10;99.90;;;;;;4993869;28;20181;-72
2022/10/07 05:51:21;;;;;;;6.33;4.40;;;8.10;99.90;;;;;;4964836;28;20820;-71
2022/10/07 05:53:47;;;;;;;11.77;4.53;;;8.10;99.90;;;;;;5003758;28;20240;-72
2022/10/07 05:56:20;;;;;;;7.00;4.20;;;8.20;99.90;;;;;;4992689;28;20794;-72
2022/10/07 05:58:51;;;;;;;3.90;3.50;;;8.20;99.90;;;;;;5009489;28;20255;-72
2022/10/07 06:01:21;;;;;;;8.93;5.23;;;8.20;99.90;;;;;;5001567;28;20451;-72
2022/10/07 06:03:53;;;;;;;9.53;4.57;;;8.20;99.90;;;;;;5002807;28;20717;-73
2022/10/07 06:06:19;;;;;;;6.87;4.30;;;8.30;99.90;;;;;;4998949;28;20453;-71
2022/10/07 06:08:45;;;;;;;7.00;5.10;;;8.40;99.90;;;;;;5000341;28;20513;-72
2022/10/07 06:13:57;;;;;;;11.53;5.10;;;8.40;99.90;;;;;;4998529;28;20420;-72
2022/10/07 06:16:23;;;;;;;8.97;4.70;;;8.50;99.90;;;;;;4998710;28;20771;-72
2022/10/07 06:18:51;;;;;;;9.10;4.40;;;8.60;99.90;;;;;;5008977;28;20172;-72
2022/10/07 06:21:17;;;;;;;5.53;3.80;;;8.70;99.90;;;;;;4992459;28;20948;-72
2022/10/07 06:23:43;;;;;;;7.67;3.70;;;8.90;99.90;;;;;;4976904;28;20416;-72
2022/10/07 06:26:10;;;;;;;4.57;3.67;;;9.00;99.90;;;;;;5004767;28;20514;-75
2022/10/07 06:28:38;;;;;;;8.00;3.97;;;9.20;99.90;;;;;;5010518;28;20171;-72
2022/10/07 06:31:15;;;;;;;8.90;4.50;;;9.40;99.90;;;;;;4995606;28;20407;-75
2022/10/07 06:33:41;;;;;;;4.27;3.20;;;9.90;99.90;;;;;;5005295;28;20669;-73
2022/10/07 06:36:11;;;;;;;6.77;4.20;;;9.80;99.90;;;;;;4975972;28;20419;-72
2022/10/07 06:38:37;;;;;;;4.70;3.30;;;9.90;99.90;;;;;;5003649;28;20587;-72
2022/10/07 06:41:04;;;;;;;7.13;4.00;;;10.10;99.90;;;;;;4999942;28;20471;-71
2022/10/07 06:43:31;;;;;;;5.63;2.90;;;10.60;99.90;;;;;;5000020;28;20428;-71
2022/10/07 06:46:02;;;;;;;6.00;3.57;;;10.70;99.90;;;;;;4997290;28;20409;-72
2022/10/07 06:48:29;;;;;;;5.93;3.30;;;11.00;99.90;;;;;;5010753;28;20824;-73
2022/10/07 06:50:59;;;;;;;5.67;4.07;;;10.80;99.90;;;;;;4999729;28;20416;-74
2022/10/07 06:53:25;;;;;;;5.50;3.83;;;11.10;99.90;;;;;;4994181;28;20467;-71
2022/10/07 06:55:53;;;;;;;3.17;2.90;;;11.10;99.90;;;;;;5001679;28;20447;-72
2022/10/07 06:58:20;;;;;;;7.20;3.43;;;11.20;99.90;;;;;;5000533;28;20415;-73
2022/10/07 07:00:49;;;;;;;3.40;3.03;;;11.20;99.90;;;;;;5015903;28;20451;-73
2022/10/07 07:03:16;;;;;;;5.83;3.53;;;11.20;99.90;;;;;;5002819;28;20423;-74
2022/10/07 07:05:44;;;;;;;3.73;3.17;;;11.50;99.90;;;;;;5007337;28;20404;-74
2022/10/07 07:08:10;;;;;;;8.17;3.00;;;11.60;99.90;;;;;;4964516;28;20499;-74
2022/10/07 07:10:37;;;;;;;3.80;2.87;;;11.70;99.90;;;;;;5013887;28;20411;-71
2022/10/07 07:13:06;;;;;;;6.90;4.00;;;12.10;99.90;;;;;;5002772;28;20240;-73
2022/10/07 07:15:32;;;;;;;4.20;3.33;;;12.70;99.90;;;;;;4995238;28;21481;-71
2022/10/07 07:17:58;;;;;;;5.40;3.33;;;12.80;99.90;;;;;;4976479;28;20474;-72
2022/10/07 07:20:24;;;;;;;3.90;3.23;;;12.80;99.90;;;;;;4983126;28;20459;-72
2022/10/07 07:22:51;;;;;;;6.67;3.30;;;13.20;99.90;;;;;;4977908;28;20663;-73
2022/10/07 07:25:17;;;;;;;4.53;3.10;;;13.60;99.90;;;;;;4988476;28;20535;-71
2022/10/07 07:27:45;;;;;;;4.60;3.23;;;14.40;99.90;;;;;;4978726;28;20416;-72
2022/10/07 07:30:12;;;;;;;4.93;3.33;;;14.10;99.90;;;;;;4979588;28;20412;-72
2022/10/07 07:32:38;;;;;;;4.27;3.80;;;14.10;99.90;;;;;;4955141;28;20520;-73
2022/10/07 07:35:05;;;;;;;6.07;3.43;;;14.60;99.90;;;;;;4987501;28;20405;-72
2022/10/07 07:37:31;;;;;;;3.33;2.60;;;14.10;99.90;;;;;;4996542;28;20413;-71
2022/10/07 07:39:59;;;;;;;6.07;3.50;;;14.10;99.90;;;;;;4979525;28;20412;-74
2022/10/07 07:42:26;;;;;;;4.93;4.27;;;14.40;99.90;;;;;;5001423;28;20523;-71
2022/10/07 07:44:52;;;;;;;6.23;3.93;;;14.20;99.90;;;;;;5005931;28;20415;-72
2022/10/07 07:47:18;;;;;;;4.27;3.90;;;14.50;99.90;;;;;;4986642;28;20502;-72
2022/10/07 07:49:44;;;;;;;4.07;3.13;;;14.30;99.90;;;;;;4988503;28;20193;-72
2022/10/07 07:52:10;;;;;;;4.83;2.87;;;14.40;99.90;;;;;;4977256;28;20215;-72
2022/10/07 07:54:36;;;;;;;7.93;3.87;;;14.90;99.90;;;;;;4994343;28;20435;-71
2022/10/07 07:57:03;;;;;;;5.30;3.43;;;14.60;99.90;;;;;;5003719;28;20244;-73
2022/10/07 07:59:31;;;;;;;3.13;2.87;;;14.70;99.90;;;;;;5008993;28;20424;-73
2022/10/07 08:01:57;;;;;;;4.63;3.30;;;14.80;99.90;;;;;;4988397;28;20572;-74
2022/10/07 08:04:29;;;;;;;9.93;3.87;;;15.00;99.90;;;;;;5022725;28;20422;-72
2022/10/07 08:06:55;;;;;;;4.17;2.80;;;15.10;99.90;;;;;;4999689;28;20425;-71
2022/10/07 08:09:43;;;;;;;4.23;3.20;;;15.20;99.90;;;;;;4984667;28;20464;-72
2022/10/07 08:12:19;;;;;;;3.40;3.10;;;15.30;99.90;;;;;;4997075;28;20442;-73
2022/10/07 08:15:11;;;;;;;7.20;3.90;;;15.80;99.90;;;;;;5006931;28;20444;-73
2022/10/07 08:17:37;;;;;;;6.83;3.90;;;15.90;99.90;;;;;;4997088;28;20509;-71
2022/10/07 08:20:03;;;;;;;4.73;3.23;;;16.50;99.90;;;;;;5002321;28;20789;-71
2022/10/07 08:22:45;;;;;;;4.70;3.73;;;16.50;99.90;;;;;;5223125;23;20233;-72
2022/10/07 08:25:10;;;;;;;5.30;3.43;;;16.50;99.90;;;;;;5007473;28;20201;-73
2022/10/07 08:27:36;;;;;;;10.43;3.73;;;17.10;99.90;;;;;;5020525;28;20527;-72
2022/10/07 08:30:08;;;;;;;4.80;3.47;;;17.70;99.90;;;;;;5032886;28;20172;-74
2022/10/07 08:32:33;;;;;;;3.60;3.30;;;17.70;99.90;;;;;;5019168;28;20303;-72
2022/10/07 08:35:06;;;;;;;9.03;3.53;;;18.70;99.90;;;;;;5029977;28;20439;-72
2022/10/07 08:37:32;;;;;;;7.33;3.07;;;18.20;99.90;;;;;;5001456;28;20233;-72
2022/10/07 08:39:57;;;;;;;3.23;2.67;;;17.50;99.90;;;;;;5027308;28;20873;-72
2022/10/07 08:42:32;;;;;;;3.67;2.13;;;17.30;99.90;;;;;;5024676;28;20236;-71
2022/10/07 08:44:58;;;;;;;7.03;3.10;;;17.00;99.90;;;;;;5018337;28;20189;-71
2022/10/07 08:47:27;;;;;;;8.07;2.87;;;17.30;99.90;;;;;;5015717;28;20887;-72
2022/10/07 08:49:57;;;;;;;2.50;2.30;;;17.20;99.90;;;;;;5029589;28;20465;-72
2022/10/07 08:52:29;;;;;;;2.47;2.30;;;17.40;99.90;;;;;;5013936;28;20443;-71
2022/10/07 08:54:54;;;;;;;3.63;2.07;;;17.40;99.90;;;;;;5026522;28;20402;-72
2022/10/07 08:57:53;;;;;;;3.60;2.57;;;17.30;99.90;;;;;;5019340;28;20859;-72
2022/10/07 09:00:33;;;;;;;4.17;2.60;;;17.40;99.90;;;;;;5022548;28;20301;-72
2022/10/07 09:03:13;;;;;;;3.40;2.73;;;17.20;99.90;;;;;;5029285;28;20813;-72
2022/10/07 09:05:43;;;;;;;3.33;1.73;;;17.70;99.90;;;;;;4988004;28;20460;-72
2022/10/07 09:08:27;;;;;;;3.17;2.43;;;18.20;99.90;;;;;;5020278;28;20521;-72
2022/10/07 09:10:55;;;;;;;4.80;1.87;;;18.50;99.90;;;;;;5028187;28;20423;-72
2022/10/07 09:13:26;;;;;;;4.37;2.30;;;17.60;99.90;;;;;;5016285;28;20450;-72
2022/10/07 09:15:57;;;;;;;3.17;1.77;;;17.50;99.90;;;;;;5026475;28;20472;-73
2022/10/07 09:18:28;;;;;;;3.87;2.57;;;17.50;99.90;;;;;;5020086;28;20431;-72
2022/10/07 09:20:55;;;;;;;4.03;1.73;;;17.30;99.90;;;;;;5015659;28;20540;-72
2022/10/07 09:23:32;;;;;;;2.87;2.03;;;17.60;99.90;;;;;;5010264;28;20478;-71
2022/10/07 09:25:58;;;;;;;3.13;2.83;;;17.50;99.90;;;;;;5021770;28;20420;-73
2022/10/07 09:28:30;;;;;;;5.13;2.03;;;17.70;99.90;;;;;;5020687;28;20422;-72
2022/10/07 09:30:59;;;;;;;4.97;2.50;;;17.70;99.90;;;;;;5027085;28;20406;-71
2022/10/07 09:33:28;;;;;;;4.03;2.90;;;17.50;99.90;;;;;;5014664;28;20443;-72
2022/10/07 09:36:05;;;;;;;4.00;2.33;;;17.10;99.90;;;;;;5024547;28;20966;-73
2022/10/07 09:38:39;;;;;;;5.07;2.60;;;17.50;99.90;;;;;;5011389;28;20445;-71
2022/10/07 09:41:14;;;;;;;3.17;2.13;;;17.60;99.90;;;;;;5026747;28;20455;-73
2022/10/07 09:43:50;;;;;;;5.10;2.30;;;17.70;99.90;;;;;;5011926;28;20446;-72
2022/10/07 09:46:46;;;;;;;4.70;2.07;;;17.50;99.90;;;;;;5010967;28;20442;-71
2022/10/07 09:49:42;;;;;;;3.80;2.20;;;17.50;99.90;;;;;;5019296;28;20611;-72
2022/10/07 09:52:25;;;;;;;4.03;1.90;;;17.20;99.90;;;;;;5001656;28;20439;-72
2022/10/07 09:54:55;;;;;;;3.00;1.80;;;17.00;99.90;;;;;;5024394;28;20416;-72
2022/10/07 09:57:33;;;;;;;2.83;2.30;;;16.90;99.90;;;;;;5012801;28;20435;-72
2022/10/07 10:00:10;;;;;;;2.90;2.40;;;17.00;99.90;;;;;;5016642;28;20508;-71
2022/10/07 10:02:36;;;;;;;2.60;2.07;;;17.30;99.90;;;;;;5021467;28;20446;-72
2022/10/07 10:05:02;;;;;;;2.70;2.00;;;17.20;99.90;;;;;;5026832;28;20871;-74
2022/10/07 10:07:35;;;;;;;5.60;3.10;;;17.00;99.90;;;;;;4995676;28;20547;-72
2022/10/07 10:10:15;;;;;;;5.03;2.10;;;17.20;99.90;;;;;;5023187;28;20281;-72
2022/10/07 10:12:46;;;;;;;2.43;2.00;;;17.20;99.90;;;;;;5016115;28;20458;-71
2022/10/07 10:15:35;;;;;;;5.53;2.03;;;17.20;99.90;;;;;;5014824;28;20423;-72
2022/10/07 10:18:02;;;;;;;2.60;1.53;;;17.00;99.90;;;;;;5019973;28;20995;-72
2022/10/07 10:20:46;;;;;;;4.10;2.10;;;16.90;99.90;;;;;;5015716;28;20454;-71
2022/10/07 10:23:40;;;;;;;3.20;2.20;;;17.00;99.90;;;;;;4991762;28;1065375;-74
2022/10/07 10:26:28;;;;;;;2.30;1.70;;;16.90;99.90;;;;;;5011163;28;20262;-72
2022/10/07 10:29:05;;;;;;;3.70;1.90;;;17.00;99.90;;;;;;5039633;28;20420;-71
2022/10/07 10:32:06;;;;;;;4.10;1.80;;;17.00;99.90;;;;;;5024473;28;20606;-72
2022/10/07 10:34:57;;;;;;;4.20;2.10;;;17.10;99.90;;;;;;5028966;28;20729;-74
2022/10/07 10:37:39;;;;;;;4.50;1.70;;;17.30;99.90;;;;;;5026412;28;20421;-75
2022/10/07 10:40:32;;;;;;;1.83;1.40;;;17.20;99.90;;;;;;5034035;28;20408;-75
2022/10/07 10:43:16;;;;;;;4.20;1.47;;;17.20;99.90;;;;;;5031190;28;20433;-76
2022/10/07 10:45:49;;;;;;;6.80;1.70;;;17.10;99.90;;;;;;5014801;28;20433;-72
2022/10/07 10:48:37;;;;;;;5.73;2.30;;;17.20;99.90;;;;;;5025381;28;20428;-73
2022/10/07 10:51:36;;;;;;;5.03;2.53;;;17.20;99.90;;;;;;5004326;28;20423;-72
2022/10/07 10:54:38;;;;;;;2.60;1.83;;;17.30;99.90;;;;;;5013765;28;20783;-71
2022/10/07 10:57:28;;;;;;;6.53;2.83;;;17.40;99.90;;;;;;4997397;28;20483;-70
2022/10/07 10:59:59;;;;;;;3.97;2.17;;;17.30;99.90;;;;;;5011016;28;20870;-71
2022/10/07 11:02:37;;;;;;;2.90;2.20;;;17.30;99.90;;;;;;5015835;28;20452;-71
2022/10/07 11:05:13;;;;;;;4.87;1.57;;;17.30;99.90;;;;;;4997522;28;20442;-74
2022/10/07 11:07:46;;;;;;;3.93;2.57;;;17.20;99.90;;;;;;5012236;28;20420;-72
2022/10/07 11:10:30;;;;;;;2.43;2.00;;;17.30;99.90;;;;;;5010658;28;20476;-72
2022/10/07 11:13:17;;;;;;;2.13;1.37;;;17.40;99.90;;;;;;5007334;28;21066;-72
2022/10/07 11:16:05;;;;;;;3.20;1.97;;;17.50;99.90;;;;;;5014136;28;20416;-73
2022/10/07 11:18:45;;;;;;;4.57;1.73;;;17.50;99.90;;;;;;5028106;28;20418;-72
2022/10/07 11:21:19;;;;;;;3.97;1.80;;;17.60;99.90;;;;;;5020615;28;20813;-74
2022/10/07 11:24:10;;;;;;;2.40;1.83;;;17.50;99.90;;;;;;5003903;28;20876;-74
2022/10/07 11:26:56;;;;;;;3.43;1.90;;;17.60;99.90;;;;;;5012562;28;20498;-73
2022/10/07 11:29:39;;;;;;;7.40;2.10;;;17.60;99.90;;;;;;5014162;28;20452;-73
2022/10/07 11:32:12;;;;;;;1.30;1.20;;;17.60;99.90;;;;;;5021931;28;20460;-73
2022/10/07 11:34:52;;;;;;;1.80;1.53;;;17.50;99.90;;;;;;5023645;28;20768;-73
2022/10/07 11:37:34;;;;;;;1.93;1.43;;;17.60;99.90;;;;;;5028123;28;20454;-72
2022/10/07 11:40:06;;;;;;;2.13;1.40;;;17.60;99.90;;;;;;5023137;28;20412;-71
2022/10/07 11:42:43;;;;;;;2.60;1.40;;;17.60;99.90;;;;;;5014509;28;20437;-73
2022/10/07 11:45:18;;;;;;;3.07;1.60;;;17.60;99.90;;;;;;5013463;28;20845;-71
2022/10/07 11:47:52;;;;;;;3.23;1.63;;;17.70;99.90;;;;;;5001095;28;20405;-71
2022/10/07 11:50:31;;;;;;;2.17;1.10;;;17.70;99.90;;;;;;5001933;28;20451;-71
2022/10/07 11:53:15;;;;;;;2.00;1.30;;;17.70;99.90;;;;;;5011855;28;20442;-72
2022/10/07 11:55:50;;;;;;;2.73;1.70;;;17.80;99.90;;;;;;5011228;28;20429;-71
2022/10/07 11:58:36;;;;;;;4.63;1.70;;;17.70;99.90;;;;;;5019220;28;20419;-72
2022/10/07 12:01:24;;;;;;;2.50;1.40;;;17.70;99.90;;;;;;5010082;28;20847;-71
2022/10/07 12:04:14;;;;;;;2.60;2.03;;;17.90;99.90;;;;;;5016717;28;20429;-72
2022/10/07 12:07:18;;;;;;;2.10;1.57;;;17.70;99.90;;;;;;5030014;28;20406;-72
2022/10/07 12:10:22;;;;;;;2.03;1.60;;;17.80;99.90;;;;;;5015445;28;20424;-71
2022/10/07 12:12:56;;;;;;;4.03;2.13;;;17.90;99.90;;;;;;5013822;28;20435;-71
2022/10/07 12:15:43;;;;;;;7.77;1.93;;;17.90;99.90;;;;;;5013740;28;20825;-71
2022/10/07 12:18:09;;;;;;;2.60;1.50;;;17.90;99.90;;;;;;5016615;28;20461;-71
2022/10/07 12:20:41;;;;;;;2.70;1.67;;;17.90;99.90;;;;;;5009791;28;20454;-71
2022/10/07 12:23:19;;;;;;;3.97;2.00;;;17.70;99.90;;;;;;5011923;28;20215;-70
2022/10/07 12:25:49;;;;;;;2.57;1.73;;;17.90;99.90;;;;;;5013357;28;20400;-72
2022/10/07 12:28:29;;;;;;;4.50;1.93;;;17.90;99.90;;;;;;5015844;28;21006;-72
2022/10/07 12:30:59;;;;;;;5.30;1.70;;;17.90;99.90;;;;;;5025175;28;20410;-71
2022/10/07 12:33:31;;;;;;;2.90;1.83;;;18.00;99.90;;;;;;5026053;28;20472;-71
2022/10/07 12:35:57;;;;;;;3.27;1.83;;;18.00;99.90;;;;;;5010523;28;20412;-72
2022/10/07 12:38:28;;;;;;;2.70;2.13;;;18.00;99.90;;;;;;5020775;28;20403;-72
2022/10/07 12:41:22;;;;;;;4.30;1.60;;;18.10;99.90;;;;;;5017578;28;20509;-72
2022/10/07 12:43:54;;;;;;;5.83;2.43;;;18.10;99.90;;;;;;5013168;28;20419;-72
2022/10/07 12:46:22;;;;;;;2.73;1.90;;;17.90;99.90;;;;;;5017107;28;20524;-72
2022/10/07 12:48:58;;;;;;;2.90;1.23;;;17.90;99.90;;;;;;5016802;28;20919;-72
2022/10/07 12:51:40;;;;;;;2.60;1.50;;;17.80;99.90;;;;;;5018301;28;20421;-72
2022/10/07 12:54:19;;;;;;;2.70;1.90;;;17.80;99.90;;;;;;5021860;28;20463;-72
2022/10/07 12:56:45;;;;;;;3.90;1.47;;;17.70;99.90;;;;;;5019671;28;20414;-74
2022/10/07 12:59:48;;;;;;;1.37;1.27;;;17.80;99.90;;;;;;5029924;28;20422;-72
2022/10/07 13:02:28;;;;;;;1.73;1.53;;;18.00;99.90;;;;;;5015902;28;20486;-72
2022/10/07 13:05:15;;;;;;;1.50;1.33;;;18.00;99.90;;;;;;5025449;28;20412;-72
2022/10/07 13:08:05;;;;;;;4.10;1.30;;;17.90;99.90;;;;;;5003519;28;20509;-73
2022/10/07 13:10:43;;;;;;;3.83;1.80;;;17.90;99.90;;;;;;5021303;28;20419;-73
2022/10/07 13:13:46;;;;;;;3.07;1.60;;;18.00;99.90;;;;;;5020597;28;20532;-70
2022/10/07 13:16:37;;;;;;;3.53;1.53;;;18.10;99.90;;;;;;5013943;28;20476;-71
2022/10/07 13:19:21;;;;;;;3.87;1.40;;;17.90;99.90;;;;;;5016304;28;20415;-71
2022/10/07 13:22:10;;;;;;;2.80;1.30;;;18.00;99.90;;;;;;5006892;28;20468;-71
2022/10/07 13:24:39;;;;;;;4.20;1.80;;;18.00;99.90;;;;;;5008763;28;20416;-72